Imperial County Airport
KIPL : now visible

Airfield :











YOU CAN JOIN US ON...

 
LOGIN :

Register | Disclaimer

   EN    FR    IT 

 









Legend :    VFR   Marginal VFR   IFR   Intensive IFR   Very Intensive IFR
Visi :
Ceiling :
>= 8 km
>= 3000ft
5 to 8 km
1000 to 3000 ft
1500m to 5 km
500 to 1000 ft
800 to 1500m
200 to 500 ft
< 800m
< 200 ft
Symbols :   Thunderstorms  Fog  Heavy snow  Heavy precipitations  Wind > 20 kt






- Airport Elevation : -54 ft


KIPL - Imperial County

CURRENT METAR :
  • 202153Z AUTO 13019KT 10SM FEW100 44/14 A2963 RMK AO2 SLP033 T04390139

EXPIRED METARs :
  • 202053Z AUTO 12010KT 10SM FEW095 45/11 A2963 RMK AO2 SLP034 T04500106 58013
  • 201953Z AUTO 12010KT 10SM CLR 44/11 A2965 RMK AO2 SLP040 T04390111

TAF KIPL
Valid from the 20 at 18:00 until the 21 at 18:00 UTC


201745Z 2018/2118 15008KT P6SM SKC
FM202200 27017G27KT P6SM SKC
FM210500 26010KT P6SM SKC
FM210900 14007KT P6SM SKC
KZLA FIR / North America



MET'MAP, your aeronautical weather chart ! - Copyright ORBIFLY December 2007 - Disclaimer

ORBIFLY MET'MAP TEAM :

Programming & Development : Alexandra Zaïnal
Concept & original design : Baudouin d'Aumeries
Assistance for programming : Marc-Olivier Méhu
Technical & hardware support : Manuel Goepfert

Contact : metmap@orbifly.com




SOURCES & CREDITS :

   NOAA       Earth
Advisory